Time;durP1;ratioP1;P1;durP2;ratioP2;P2;SDS_P1;SDS_P2;PMS_P1;PMS_P2;Temp;Humidity;BMP_temperature;BMP_pressure;BME280_temperature;BME280_humidity;BME280_pressure;Samples;Min_cycle;Max_cycle;Signal;HPM_P1;HPM_P2
2021/10/28 00:13:07;;;;;;;14.88;4.63;;;;;;;12.16;100.00;101003.06;6132003;23;20328;-78
2021/10/28 00:15:36;;;;;;;11.25;3.50;;;;;;;12.18;100.00;101014.44;6213154;23;20009;-78
2021/10/28 00:20:29;;;;;;;15.18;3.40;;;;;;;12.00;100.00;100984.56;6212827;23;20055;-79
2021/10/28 00:22:55;;;;;;;8.00;2.45;;;;;;;12.22;100.00;101020.31;6213747;23;20019;-78
2021/10/28 00:25:21;;;;;;;11.80;2.60;;;;;;;12.23;100.00;101021.94;6165491;23;20012;-79
2021/10/28 00:27:49;;;;;;;11.60;2.70;;;;;;;11.75;100.00;100950.03;6219039;23;20393;-78
2021/10/28 00:30:17;;;;;;;12.98;2.95;;;;;;;12.26;100.00;101026.94;6204693;23;20077;-78
2021/10/28 00:32:42;;;;;;;14.95;2.70;;;;;;;12.28;100.00;101029.41;6194666;23;20411;-78
2021/10/28 00:35:08;;;;;;;11.20;2.42;;;;;;;12.28;100.00;101022.16;6219561;23;20008;-78
2021/10/28 00:37:36;;;;;;;14.20;2.67;;;;;;;12.28;100.00;101016.75;6246794;23;20007;-79
2021/10/28 00:40:04;;;;;;;14.73;2.53;;;;;;;12.31;100.00;101021.75;6164689;23;20021;-79
2021/10/28 00:42:29;;;;;;;14.13;3.28;;;;;;;12.29;100.00;101025.72;6192396;23;20005;-78
2021/10/28 00:44:55;;;;;;;9.82;2.25;;;;;;;12.15;100.00;100993.31;6161556;23;20012;-79
2021/10/28 00:47:21;;;;;;;12.15;2.50;;;;;;;12.33;100.00;101022.38;6185596;23;20084;-79
2021/10/28 00:49:46;;;;;;;11.40;2.90;;;;;;;12.32;100.00;101015.34;6185070;23;20009;-79
2021/10/28 00:52:20;;;;;;;12.97;2.40;;;;;;;12.25;100.00;101005.53;6197183;23;20031;-79
2021/10/28 00:54:46;;;;;;;11.55;2.55;;;;;;;12.38;100.00;101016.34;6189343;23;20221;-78
2021/10/28 00:57:12;;;;;;;12.85;2.65;;;;;;;12.38;100.00;101019.06;6188704;23;20426;-78
2021/10/28 00:59:38;;;;;;;13.70;2.40;;;;;;;12.34;100.00;101012.41;6189280;23;20008;-78
2021/10/28 01:02:03;;;;;;;10.40;2.45;;;;;;;12.34;100.00;100997.06;6189035;23;20008;-78
2021/10/28 01:04:30;;;;;;;10.40;2.00;;;;;;;12.42;100.00;101015.75;6189805;23;20423;-78
2021/10/28 01:06:56;;;;;;;8.85;1.85;;;;;;;12.40;100.00;101017.00;6187807;23;20366;-78
2021/10/28 01:09:23;;;;;;;9.23;1.73;;;;;;;12.46;100.00;101018.88;6164183;23;20004;-78
2021/10/28 01:11:51;;;;;;;10.82;2.13;;;;;;;12.46;100.00;101016.16;6188993;23;20301;-79
2021/10/28 01:14:16;;;;;;;12.20;1.95;;;;;;;12.39;100.00;101005.38;6215185;23;20407;-79
2021/10/28 01:16:42;;;;;;;9.15;1.58;;;;;;;12.33;100.00;100999.97;6189593;23;20004;-78
2021/10/28 01:19:08;;;;;;;7.47;1.60;;;;;;;12.46;100.00;101013.47;6188818;23;20024;-79
2021/10/28 01:21:34;;;;;;;5.63;1.55;;;;;;;12.49;100.00;101018.47;6166021;23;20084;-78
2021/10/28 01:23:59;;;;;;;12.93;1.70;;;;;;;12.50;100.00;101022.00;6215611;23;20098;-78
2021/10/28 01:26:24;;;;;;;8.05;1.40;;;;;;;12.43;100.00;101006.63;6216127;23;20020;-79
2021/10/28 01:29:02;;;;;;;10.23;1.60;;;;;;;12.47;100.00;101007.03;6191382;23;20440;-78
2021/10/28 01:31:30;;;;;;;6.85;1.33;;;;;;;12.49;100.00;101004.13;6216639;23;20414;-79
2021/10/28 01:33:57;;;;;;;13.88;2.00;;;;;;;12.58;100.00;101013.66;6216740;23;20065;-78
2021/10/28 01:36:25;;;;;;;6.45;1.40;;;;;;;12.43;100.00;101001.22;6190913;23;20008;-78
2021/10/28 01:38:51;;;;;;;9.70;1.50;;;;;;;12.50;100.00;101017.41;6239035;23;20047;-78
2021/10/28 01:41:38;;;;;;;9.68;1.58;;;;;;;12.50;100.00;101016.59;6250824;23;19996;-78
2021/10/28 01:44:03;;;;;;;9.18;1.40;;;;;;;12.53;100.00;101025.09;6154006;23;20156;-78
2021/10/28 01:46:29;;;;;;;9.43;1.65;;;;;;;12.54;100.00;101029.44;6131297;23;20073;-78
2021/10/28 01:48:54;;;;;;;6.45;1.30;;;;;;;12.58;100.00;101029.88;6105596;23;20017;-78
2021/10/28 01:51:21;;;;;;;6.38;1.30;;;;;;;12.48;100.00;101016.78;6129643;23;20431;-78
2021/10/28 01:53:47;;;;;;;5.07;1.33;;;;;;;12.58;100.00;101025.31;6129527;23;20037;-78
2021/10/28 01:56:13;;;;;;;4.93;1.20;;;;;;;12.58;100.00;101019.94;6131075;23;20150;-79
2021/10/28 01:58:39;;;;;;;9.18;1.90;;;;;;;12.59;100.00;101021.59;6129755;23;20005;-78
2021/10/28 02:01:06;;;;;;;9.27;1.50;;;;;;;12.51;100.00;101016.38;6154575;23;20016;-79
2021/10/28 02:03:33;;;;;;;6.53;1.20;;;;;;;12.54;100.00;101021.34;6131726;23;20401;-78
2021/10/28 02:06:00;;;;;;;10.68;1.40;;;;;;;12.32;100.00;100984.81;6130240;23;20016;-78
2021/10/28 02:08:26;;;;;;;9.32;1.60;;;;;;;12.54;100.00;101024.06;6130556;23;20013;-78
2021/10/28 02:10:52;;;;;;;7.70;1.60;;;;;;;12.52;100.00;101014.53;6130019;23;20021;-78
2021/10/28 02:13:18;;;;;;;10.07;2.10;;;;;;;12.52;100.00;101020.75;6129099;23;20043;-78
2021/10/28 02:15:44;;;;;;;6.88;1.27;;;;;;;12.60;100.00;101030.50;6153760;23;20005;-79
2021/10/28 02:18:10;;;;;;;13.63;1.65;;;;;;;12.51;100.00;101024.47;6129351;23;20028;-78
2021/10/28 02:20:38;;;;;;;15.85;1.80;;;;;;;12.58;100.00;101030.72;6106067;23;20013;-78
2021/10/28 02:23:05;;;;;;;7.60;1.98;;;;;;;12.54;100.00;101020.53;6129844;23;20356;-78
2021/10/28 02:25:31;;;;;;;5.03;1.30;;;;;;;12.56;100.00;101032.78;6130681;23;20397;-78
2021/10/28 02:27:57;;;;;;;11.68;1.70;;;;;;;12.57;100.00;101039.00;6153592;23;20020;-78
2021/10/28 02:30:23;;;;;;;11.13;1.77;;;;;;;12.53;100.00;101033.19;6154873;23;20009;-78
2021/10/28 02:32:49;;;;;;;19.73;1.98;;;;;;;12.47;100.00;101020.53;6129230;23;20044;-78
2021/10/28 02:35:15;;;;;;;11.50;1.80;;;;;;;12.58;100.00;101033.44;6154443;23;20009;-78
2021/10/28 02:37:41;;;;;;;17.60;2.25;;;;;;;12.56;100.00;101031.97;6106344;23;20020;-78
2021/10/28 02:40:08;;;;;;;8.65;2.03;;;;;;;12.59;100.00;101026.16;6152020;23;20090;-78
2021/10/28 02:42:34;;;;;;;14.63;2.45;;;;;;;12.58;100.00;101037.97;6219898;23;20008;-79
2021/10/28 02:44:59;;;;;;;11.52;2.17;;;;;;;12.56;100.00;101037.38;6219867;23;20016;-78
2021/10/28 02:47:25;;;;;;;13.13;2.38;;;;;;;12.58;100.00;101040.66;6248039;23;20012;-78
2021/10/28 02:49:51;;;;;;;13.82;2.30;;;;;;;12.53;100.00;101032.38;6219501;23;20019;-78
2021/10/28 02:52:16;;;;;;;13.15;2.38;;;;;;;12.50;100.00;101022.00;6223972;23;20027;-79
2021/10/28 02:54:41;;;;;;;14.95;2.83;;;;;;;12.08;100.00;100957.38;6200144;23;20507;-77
2021/10/28 02:57:08;;;;;;;14.75;2.70;;;;;;;12.52;100.00;101026.16;6219999;23;20369;-77
2021/10/28 02:59:34;;;;;;;11.07;2.25;;;;;;;12.55;100.00;101036.53;6220935;23;20011;-78
2021/10/28 03:02:00;;;;;;;18.13;2.70;;;;;;;12.55;100.00;101024.88;6195691;23;20008;-79
2021/10/28 03:04:25;;;;;;;19.92;2.83;;;;;;;12.50;100.00;101024.69;6246973;23;20366;-78
2021/10/28 03:06:52;;;;;;;19.35;3.28;;;;;;;12.60;100.00;101044.00;6247382;23;20003;-78
2021/10/28 03:09:20;;;;;;;18.77;3.38;;;;;;;12.40;100.00;101007.03;6220338;23;20319;-78
2021/10/28 03:11:48;;;;;;;23.50;3.75;;;;;;;12.56;100.00;101038.19;6219490;23;20028;-78
2021/10/28 03:14:16;;;;;;;23.02;3.92;;;;;;;12.57;100.00;101030.91;6221649;23;20015;-78
2021/10/28 03:17:00;;;;;;;15.98;3.53;;;;;;;12.56;100.00;101023.88;6174334;23;20074;-78
2021/10/28 03:27:25;;;;;;;31.85;4.57;;;;;;;12.52;100.00;101045.03;6247033;23;20018;-78
2021/10/28 03:29:51;;;;;;;20.48;4.35;;;;;;;12.55;100.00;101041.94;6246209;23;20027;-78
2021/10/28 03:32:18;;;;;;;27.52;4.85;;;;;;;12.52;100.00;101036.13;6245936;23;19999;-78
2021/10/28 03:34:44;;;;;;;28.63;4.60;;;;;;;12.48;100.00;101022.19;6246818;23;20081;-78
2021/10/28 04:28:52;;;;;;;37.72;5.85;;;;;;;12.53;100.00;101041.28;6174571;23;20004;-79
2021/10/28 04:30:09;;;;;;;41.10;6.15;;;;;;;12.50;100.00;101049.81;6249025;23;20015;-78
2021/10/28 04:32:35;;;;;;;43.25;5.63;;;;;;;12.52;100.00;101045.03;6250592;23;20008;-79
2021/10/28 04:35:01;;;;;;;43.47;7.93;;;;;;;12.50;100.00;101052.50;6195738;23;20023;-79
2021/10/28 04:37:27;;;;;;;51.38;7.05;;;;;;;12.49;100.00;101050.84;6245454;23;20015;-78
2021/10/28 04:39:54;;;;;;;51.38;6.60;;;;;;;12.34;100.00;101031.31;6219243;23;20522;-79
2021/10/28 04:42:20;;;;;;;55.10;7.65;;;;;;;12.46;100.00;101048.56;6218955;23;20004;-78
2021/10/28 04:44:45;;;;;;;53.63;7.32;;;;;;;12.44;100.00;101058.72;6219464;23;20014;-78
2021/10/28 04:47:11;;;;;;;48.88;6.50;;;;;;;12.43;100.00;101065.16;6195031;23;20083;-79
2021/10/28 04:49:36;;;;;;;49.63;6.47;;;;;;;12.34;100.00;101036.69;6218665;23;20054;-79
2021/10/28 04:52:02;;;;;;;49.90;7.03;;;;;;;12.40;100.00;101066.41;6195400;23;20013;-79
2021/10/28 04:54:28;;;;;;;52.83;7.97;;;;;;;12.25;100.00;101029.81;6219569;23;20019;-78
2021/10/28 04:56:53;;;;;;;54.97;7.80;;;;;;;12.36;100.00;101064.31;6219438;23;20012;-79
2021/10/28 04:59:20;;;;;;;42.97;6.75;;;;;;;12.31;100.00;101051.44;6172414;23;20100;-79
2021/10/28 05:01:45;;;;;;;53.80;7.03;;;;;;;12.35;100.00;101060.78;6222186;23;20036;-79
2021/10/28 05:04:11;;;;;;;48.22;7.75;;;;;;;12.32;100.00;101052.28;6196892;23;20164;-78
2021/10/28 05:06:36;;;;;;;53.60;8.02;;;;;;;12.32;100.00;101046.88;6196427;23;20011;-79
2021/10/28 05:09:04;;;;;;;51.92;8.50;;;;;;;12.16;100.00;101032.72;6196861;23;20374;-79
2021/10/28 05:11:29;;;;;;;47.10;7.82;;;;;;;12.25;100.00;101043.31;6221246;23;20004;-80
2021/10/28 05:13:55;;;;;;;44.00;7.25;;;;;;;12.11;100.00;101029.78;6220593;23;20086;-80
2021/10/28 05:16:24;;;;;;;49.42;7.18;;;;;;;12.26;100.00;101053.09;6249513;23;20039;-80
2021/10/28 05:18:50;;;;;;;56.70;7.78;;;;;;;12.23;100.00;101048.94;6253674;23;20003;-79
2021/10/28 05:21:16;;;;;;;48.60;7.07;;;;;;;12.23;100.00;101059.72;6221574;23;20000;-79
2021/10/28 05:23:41;;;;;;;47.97;7.50;;;;;;;11.96;100.00;101021.88;6220845;23;20012;-79
2021/10/28 05:26:08;;;;;;;49.47;7.63;;;;;;;12.18;100.00;101065.72;6220573;23;20011;-79
2021/10/28 05:28:35;;;;;;;42.10;7.43;;;;;;;12.16;100.00;101062.41;6247000;23;20009;-79
2021/10/28 05:31:02;;;;;;;49.13;7.90;;;;;;;12.11;100.00;101067.56;6220491;23;20353;-79
2021/10/28 05:33:27;;;;;;;36.40;5.93;;;;;;;12.10;100.00;101063.22;6220940;23;20414;-79
2021/10/28 05:35:53;;;;;;;52.75;7.35;;;;;;;12.06;100.00;101061.13;6247048;23;20015;-79
2021/10/28 05:38:19;;;;;;;43.17;7.43;;;;;;;12.03;100.00;101069.63;6246818;23;20012;-79
2021/10/28 05:40:45;;;;;;;53.10;8.02;;;;;;;11.99;100.00;101063.81;6246828;23;20004;-79
2021/10/28 05:43:10;;;;;;;49.53;7.53;;;;;;;11.69;100.00;101020.94;6220698;23;20043;-79
2021/10/28 05:45:36;;;;;;;48.72;7.15;;;;;;;11.89;100.00;101050.69;6171099;23;20008;-79
2021/10/28 05:48:02;;;;;;;51.25;7.30;;;;;;;11.85;100.00;101056.69;6220661;23;20078;-79
2021/10/28 05:50:30;;;;;;;44.05;8.00;;;;;;;11.73;100.00;101038.38;6220620;23;20004;-79
2021/10/28 05:53:00;;;;;;;55.13;7.75;;;;;;;11.85;100.00;101064.78;6221012;23;20410;-79
2021/10/28 05:55:26;;;;;;;46.15;7.50;;;;;;;11.82;100.00;101065.13;6221185;23;20302;-79
2021/10/28 05:57:53;;;;;;;47.28;7.35;;;;;;;11.80;100.00;101067.22;6195721;23;20035;-79
2021/10/28 06:00:21;;;;;;;50.08;7.60;;;;;;;11.77;100.00;101066.56;6220588;23;20012;-79
2021/10/28 06:02:46;;;;;;;46.45;6.90;;;;;;;11.80;100.00;101072.63;6220541;23;20087;-79
2021/10/28 06:05:12;;;;;;;43.28;7.45;;;;;;;11.76;100.00;101064.91;6220333;23;20027;-79
2021/10/28 06:07:40;;;;;;;51.35;8.55;;;;;;;11.70;100.00;101049.53;6219822;23;20012;-79
2021/10/28 06:10:08;;;;;;;57.72;7.38;;;;;;;11.85;100.00;101062.06;6195118;23;20314;-79
2021/10/28 06:12:37;;;;;;;51.58;7.47;;;;;;;11.87;100.00;101060.03;6220164;23;20040;-79
2021/10/28 06:15:04;;;;;;;54.13;8.43;;;;;;;11.83;100.00;101064.13;6196380;23;20031;-79
2021/10/28 06:17:36;;;;;;;38.72;6.43;;;;;;;11.96;100.00;101072.31;6220647;23;20004;-79
2021/10/28 06:20:06;;;;;;;38.65;6.72;;;;;;;11.93;100.00;101064.59;6221174;23;20314;-79
2021/10/28 06:22:32;;;;;;;37.33;6.40;;;;;;;11.90;100.00;101052.34;6221060;23;20008;-80
2021/10/28 06:24:58;;;;;;;34.28;5.95;;;;;;;12.00;100.00;101068.16;6195695;23;20015;-79
2021/10/28 06:27:24;;;;;;;41.95;6.55;;;;;;;12.02;100.00;101060.72;6224000;23;19999;-80
2021/10/28 06:29:49;;;;;;;40.97;6.68;;;;;;;12.00;100.00;101065.47;6255432;23;20004;-79
2021/10/28 06:32:15;;;;;;;35.78;6.07;;;;;;;12.05;100.00;101065.66;6248884;23;20017;-80
2021/10/28 06:34:46;;;;;;;36.63;6.63;;;;;;;12.00;100.00;101068.16;6220972;23;20090;-78
2021/10/28 06:37:12;;;;;;;30.83;5.68;;;;;;;12.06;100.00;101071.91;6195107;23;20023;-78
2021/10/28 06:39:38;;;;;;;41.92;6.60;;;;;;;12.09;100.00;101075.03;6247009;23;20098;-78
2021/10/28 06:42:05;;;;;;;38.45;7.30;;;;;;;12.13;100.00;101068.19;6220731;23;20007;-78
2021/10/28 06:44:32;;;;;;;41.38;6.65;;;;;;;12.16;100.00;101066.97;6218941;23;20120;-78
2021/10/28 06:46:59;;;;;;;37.45;6.28;;;;;;;12.07;100.00;101076.28;6246535;23;20012;-79
2021/10/28 06:49:29;;;;;;;34.47;6.57;;;;;;;12.18;100.00;101089.16;6196522;23;20095;-79
2021/10/28 06:51:54;;;;;;;38.22;6.45;;;;;;;12.18;100.00;101091.84;6221982;23;20054;-78
2021/10/28 07:04:39;;;;;;;34.70;8.60;;;;;;;11.99;100.00;101069.19;6257061;23;20085;-79
2021/10/28 07:07:05;;;;;;;39.58;8.07;;;;;;;12.16;100.00;101088.56;6245893;23;20307;-78
2021/10/28 07:09:33;;;;;;;37.33;8.13;;;;;;;12.18;100.00;101094.56;6247949;23;20070;-79
2021/10/28 07:12:14;;;;;;;38.20;7.63;;;;;;;12.14;100.00;101090.59;6222083;23;20008;-79
2021/10/28 07:14:44;;;;;;;35.40;7.55;;;;;;;12.20;100.00;101104.13;6247355;23;20008;-80
2021/10/28 08:13:35;;;;;;;37.97;10.03;;;;;;;12.23;100.00;101137.97;6226556;23;20019;-81
2021/10/28 08:21:27;;;;;;;37.67;9.07;;;;;;;12.35;100.00;101146.28;6250315;23;20509;-80
2021/10/28 08:31:50;;;;;;;42.47;9.15;;;;;;;12.42;100.00;101152.56;6258043;23;20414;-81
2021/10/28 08:34:20;;;;;;;32.85;8.73;;;;;;;12.35;100.00;101149.00;6252269;23;20004;-79
2021/10/28 08:36:51;;;;;;;39.03;8.65;;;;;;;12.43;100.00;101157.75;6198891;23;20460;-79
2021/10/28 08:39:17;;;;;;;38.75;8.65;;;;;;;12.40;100.00;101147.34;6198189;23;20024;-79
2021/10/28 08:41:45;;;;;;;44.17;9.40;;;;;;;12.45;100.00;101157.56;6226600;23;20001;-80
2021/10/28 08:44:14;;;;;;;42.88;9.23;;;;;;;12.36;100.00;101145.28;6250203;23;20015;-80
2021/10/28 08:46:43;;;;;;;44.63;9.77;;;;;;;12.40;100.00;101141.13;6222924;23;20098;-79
2021/10/28 08:49:16;;;;;;;39.47;9.27;;;;;;;12.50;100.00;101163.16;6253040;23;20008;-81
2021/10/28 09:24:40;;;;;;;36.63;7.47;;;;;;;12.20;100.00;101136.50;6235567;23;20019;-82
2021/10/28 09:51:42;;;;;;;34.10;8.07;;;;;;;12.55;100.00;101193.09;6231137;23;20008;-81
2021/10/28 09:59:28;;;;;;;28.98;6.75;;;;;;;12.54;100.00;101206.78;6232469;23;20039;-82
2021/10/28 10:02:05;;;;;;;28.88;6.93;;;;;;;12.44;100.00;101199.88;6224207;23;20005;-78
2021/10/28 10:04:32;;;;;;;42.10;7.93;;;;;;;12.58;100.00;101208.03;6205056;23;20023;-80
2021/10/28 10:06:59;;;;;;;32.50;7.30;;;;;;;12.54;100.00;101207.59;6232900;23;20004;-81
2021/10/28 10:09:25;;;;;;;32.30;7.10;;;;;;;12.49;100.00;101209.28;6181950;23;20060;-80
2021/10/28 10:11:51;;;;;;;24.98;6.70;;;;;;;12.61;100.00;101218.44;6233515;23;20001;-81
2021/10/28 10:14:19;;;;;;;36.15;6.95;;;;;;;12.58;100.00;101214.28;6209114;23;20020;-81
2021/10/28 10:16:46;;;;;;;32.13;6.88;;;;;;;12.65;100.00;101225.94;6182335;23;20013;-83
2021/10/28 10:19:14;;;;;;;30.73;6.72;;;;;;;12.64;100.00;101221.56;6215936;23;20040;-81
2021/10/28 10:21:43;;;;;;;31.52;6.63;;;;;;;12.63;100.00;101217.19;6242131;23;20047;-82
2021/10/28 12:23:37;;;;;;;30.35;6.82;;;;;;;13.04;100.00;101197.34;6230112;23;20012;-77
2021/10/28 12:43:40;;;;;;;26.50;6.10;;;;;;;13.10;100.00;101190.28;6218586;23;20461;-80
2021/10/28 12:46:28;;;;;;;22.98;6.40;;;;;;;13.06;100.00;101186.34;6195621;23;20016;-80
2021/10/28 14:25:36;;;;;;;37.53;17.60;;;;;;;12.15;100.00;101198.34;6173609;23;20415;-78
2021/10/28 15:52:37;;;;;;;47.83;28.92;;;;;;;11.38;100.00;101152.59;5096881;28;20468;-79
2021/10/28 16:24:08;;;;;;;50.92;29.02;;;;;;;10.97;100.00;101151.44;5094620;28;20050;-78
2021/10/28 16:26:33;;;;;;;47.28;27.85;;;;;;;10.86;100.00;101132.25;5092672;28;20126;-78
2021/10/28 16:29:03;;;;;;;53.75;28.83;;;;;;;10.93;100.00;101152.03;5103734;28;20020;-77
2021/10/28 16:31:29;;;;;;;58.72;30.48;;;;;;;10.84;100.00;101145.09;5089160;28;20043;-78
2021/10/28 16:33:55;;;;;;;51.13;29.25;;;;;;;10.87;100.00;101152.78;5081991;28;20054;-76
2021/10/28 16:36:24;;;;;;;52.60;29.25;;;;;;;10.75;100.00;101130.91;5089081;28;20134;-78
2021/10/28 16:38:50;;;;;;;61.67;28.80;;;;;;;10.82;100.00;101150.66;5119176;28;20032;-76
2021/10/28 16:41:15;;;;;;;53.15;29.83;;;;;;;10.81;100.00;101136.34;5088797;28;20062;-77
2021/10/28 16:43:42;;;;;;;54.33;28.73;;;;;;;10.80;100.00;101132.00;5054814;28;20116;-77
2021/10/28 16:46:08;;;;;;;56.17;28.17;;;;;;;10.71;100.00;101125.09;5117948;28;20044;-80
2021/10/28 16:48:35;;;;;;;49.65;28.48;;;;;;;10.58;100.00;101115.00;5072245;28;20016;-79
2021/10/28 16:51:01;;;;;;;49.67;28.00;;;;;;;10.64;100.00;101113.44;5074692;28;20028;-79
2021/10/28 16:53:26;;;;;;;59.35;31.33;;;;;;;10.75;100.00;101130.91;5106669;28;20194;-79
2021/10/28 16:55:52;;;;;;;54.75;28.42;;;;;;;10.64;100.00;101110.72;5074999;28;20036;-77
2021/10/28 16:58:17;;;;;;;51.60;27.95;;;;;;;10.72;100.00;101134.81;5075437;28;20119;-77
2021/10/28 17:00:42;;;;;;;54.50;28.63;;;;;;;10.73;100.00;101138.38;5075239;28;20343;-78
2021/10/28 17:03:08;;;;;;;55.15;29.02;;;;;;;10.69;100.00;101132.50;5074663;28;20021;-76
2021/10/28 17:05:34;;;;;;;56.65;28.63;;;;;;;10.48;100.00;101103.75;5072157;28;20037;-77
2021/10/28 17:07:59;;;;;;;56.53;29.80;;;;;;;10.59;100.00;101121.22;5075143;28;20089;-78
2021/10/28 17:10:25;;;;;;;57.63;28.90;;;;;;;10.66;100.00;101138.31;5058006;28;20082;-80
2021/10/28 17:12:50;;;;;;;57.42;28.92;;;;;;;10.40;100.00;101089.56;5057941;28;20028;-77
2021/10/28 17:15:16;;;;;;;59.33;29.77;;;;;;;10.66;100.00;101135.59;5076479;28;20026;-77
2021/10/28 17:17:44;;;;;;;57.67;29.35;;;;;;;10.65;100.00;101123.16;5076009;28;20094;-80
2021/10/28 17:20:10;;;;;;;57.80;29.08;;;;;;;10.55;100.00;101103.81;5070699;28;20369;-80
2021/10/28 17:22:37;;;;;;;56.10;28.48;;;;;;;10.68;100.00;101125.47;5073141;28;20029;-79
2021/10/28 17:25:05;;;;;;;60.38;27.73;;;;;;;10.69;100.00;101120.91;5073914;28;20028;-80
2021/10/28 17:27:31;;;;;;;58.35;28.65;;;;;;;10.65;100.00;101103.50;5077159;28;20032;-79
2021/10/28 17:29:57;;;;;;;63.85;28.45;;;;;;;10.69;100.00;101112.84;5078433;28;20039;-79
2021/10/28 17:32:22;;;;;;;55.85;28.95;;;;;;;10.35;100.00;101055.19;5050162;28;20043;-80
2021/10/28 17:34:48;;;;;;;60.03;28.25;;;;;;;10.69;100.00;101104.75;5074723;28;20456;-80
2021/10/28 17:37:13;;;;;;;58.30;29.20;;;;;;;10.63;100.00;101092.94;5075242;28;20040;-80
2021/10/28 17:39:39;;;;;;;53.65;27.63;;;;;;;10.58;100.00;101098.88;5088464;28;20032;-79
2021/10/28 17:42:04;;;;;;;53.15;28.33;;;;;;;10.56;100.00;101087.47;5074485;28;20091;-80
2021/10/28 17:44:37;;;;;;;51.85;26.95;;;;;;;10.69;100.00;101104.75;5088439;28;20474;-81
2021/10/28 17:47:04;;;;;;;56.50;27.20;;;;;;;10.68;100.00;101103.09;5076208;28;20025;-80
2021/10/28 17:49:29;;;;;;;59.30;26.80;;;;;;;10.67;100.00;101107.66;5108962;28;20640;-79
2021/10/28 17:51:55;;;;;;;56.15;26.55;;;;;;;10.67;100.00;101114.91;5058749;28;20029;-80
2021/10/28 17:54:22;;;;;;;53.63;26.73;;;;;;;10.66;100.00;101113.22;5074241;28;20465;-80
2021/10/28 17:56:47;;;;;;;61.83;26.52;;;;;;;10.66;100.00;101107.84;5062161;28;20058;-81
2021/10/28 17:59:12;;;;;;;49.30;25.83;;;;;;;10.56;100.00;101089.31;5076135;28;20048;-82
2021/10/28 18:01:39;;;;;;;56.30;25.80;;;;;;;10.66;100.00;101110.53;5101536;28;20068;-82
2021/10/28 18:04:06;;;;;;;51.70;24.70;;;;;;;10.57;100.00;101101.75;5089182;28;20033;-81
2021/10/28 18:06:32;;;;;;;54.35;23.13;;;;;;;10.67;100.00;101107.66;5095149;28;20472;-83
2021/10/28 18:11:34;;;;;;;53.45;23.60;;;;;;;10.00;100.00;100993.16;4995575;28;20046;-82
2021/10/28 18:14:00;;;;;;;50.72;22.77;;;;;;;9.74;100.00;100960.63;4996252;28;20033;-82
2021/10/28 18:16:28;;;;;;;46.83;21.50;;;;;;;9.52;100.00;100927.50;5119073;23;20053;-83
2021/10/28 18:18:57;;;;;;;45.90;21.40;;;;;;;9.76;100.00;100963.94;5460435;23;20064;-82
2021/10/28 18:29:08;;;;;;;44.45;19.58;;;;;;;9.66;100.00;100926.63;5063007;23;20038;-82
2021/10/28 18:31:35;;;;;;;43.20;18.50;;;;;;;10.01;100.00;100994.81;4998804;28;20097;-82
2021/10/28 18:34:02;;;;;;;46.58;19.40;;;;;;;9.50;100.00;100908.03;5035505;28;20515;-83
2021/10/28 18:36:33;;;;;;;42.65;18.83;;;;;;;9.52;100.00;100922.13;5034430;28;20038;-82
2021/10/28 18:39:00;;;;;;;41.20;18.02;;;;;;;10.02;100.00;100988.41;5034190;28;20117;-82
2021/10/28 18:41:25;;;;;;;37.80;17.40;;;;;;;9.84;100.00;100977.28;5037917;28;20034;-83
2021/10/28 18:43:51;;;;;;;42.25;17.60;;;;;;;10.06;100.00;100988.84;5033682;28;20434;-83
2021/10/28 18:46:21;;;;;;;32.17;15.43;;;;;;;9.61;100.00;100919.13;5034255;28;20032;-82
2021/10/28 18:48:51;;;;;;;36.38;16.02;;;;;;;10.22;100.00;101007.44;5035268;28;20033;-83
2021/10/28 18:51:18;;;;;;;41.30;15.90;;;;;;;9.76;100.00;100942.44;5033152;28;20022;-81
2021/10/28 18:53:45;;;;;;;31.20;15.02;;;;;;;9.53;100.00;100904.97;5036235;28;20056;-83
2021/10/28 18:56:12;;;;;;;35.60;15.65;;;;;;;10.03;100.00;100970.41;5030103;28;20029;-82
2021/10/28 18:58:38;;;;;;;33.95;16.02;;;;;;;9.72;100.00;100923.16;5024636;28;20026;-83
2021/10/28 19:01:04;;;;;;;39.58;15.70;;;;;;;10.09;100.00;100975.03;5035324;28;20045;-84
2021/10/28 19:03:30;;;;;;;39.25;16.48;;;;;;;9.55;100.00;100903.78;5036886;28;20041;-83
2021/10/28 19:05:57;;;;;;;36.67;15.57;;;;;;;9.79;100.00;100920.56;5017764;28;20033;-83
2021/10/28 19:08:24;;;;;;;36.42;14.93;;;;;;;9.81;100.00;100943.53;5021754;28;20388;-82
2021/10/28 19:10:50;;;;;;;31.88;13.95;;;;;;;10.07;100.00;100969.84;5033384;28;20018;-83
2021/10/28 19:13:16;;;;;;;41.10;17.10;;;;;;;10.08;100.00;100965.31;5017368;28;20048;-83
2021/10/28 19:15:42;;;;;;;39.53;17.13;;;;;;;10.09;100.00;100966.97;5016822;28;20034;-83
2021/10/28 19:18:08;;;;;;;32.22;16.45;;;;;;;10.75;100.00;101072.53;5032811;28;20041;-83
2021/10/28 19:20:35;;;;;;;35.90;17.73;;;;;;;9.85;100.00;100926.00;5031476;28;20029;-83
2021/10/28 19:23:02;;;;;;;35.90;14.93;;;;;;;10.15;100.00;100990.41;5031170;28;20025;-83
2021/10/28 19:25:28;;;;;;;29.67;13.18;;;;;;;9.88;100.00;100939.06;5022364;28;19998;-83
2021/10/28 19:27:54;;;;;;;28.67;13.35;;;;;;;9.85;100.00;100930.53;5041008;28;20467;-83
2021/10/28 19:32:48;;;;;;;30.92;14.65;;;;;;;10.09;100.00;100956.22;5033072;28;20025;-82
2021/10/28 19:35:17;;;;;;;29.75;14.27;;;;;;;9.70;100.00;100889.44;5020815;28;20121;-84
2021/10/28 19:37:50;;;;;;;34.42;14.20;;;;;;;9.93;100.00;100937.63;5017125;28;20026;-84
2021/10/28 19:48:23;;;;;;;38.28;14.90;;;;;;;9.91;100.00;100939.72;5332471;23;20109;-83
2021/10/28 19:50:49;;;;;;;33.22;14.73;;;;;;;9.97;100.00;100938.94;5029780;28;20373;-83
2021/10/28 19:53:19;;;;;;;38.47;15.30;;;;;;;9.79;100.00;100915.19;5017740;28;20037;-82
2021/10/28 19:55:45;;;;;;;35.65;15.55;;;;;;;9.64;100.00;100889.22;5015096;28;20036;-83
2021/10/28 19:58:16;;;;;;;32.50;14.35;;;;;;;9.87;100.00;100934.72;5032198;28;20025;-82
2021/10/28 20:00:48;;;;;;;40.47;14.68;;;;;;;9.65;100.00;100892.72;5013035;28;20518;-83
2021/10/28 20:21:33;;;;;;;30.88;12.57;;;;;;;10.25;100.00;100992.78;5032933;28;20028;-82
2021/10/28 20:24:00;;;;;;;28.40;12.75;;;;;;;10.79;100.00;101052.28;5035592;28;20046;-82
2021/10/28 20:26:26;;;;;;;31.73;13.50;;;;;;;9.68;100.00;100870.03;5036229;28;20095;-83
2021/10/28 20:28:54;;;;;;;23.95;12.48;;;;;;;9.74;100.00;100888.06;5033139;28;20033;-83
2021/10/28 20:31:21;;;;;;;27.35;11.43;;;;;;;9.79;100.00;100915.19;5038825;28;20115;-83
2021/10/28 20:33:51;;;;;;;26.27;11.60;;;;;;;9.55;100.00;100868.84;5020528;28;20029;-83
2021/10/28 20:39:05;;;;;;;27.60;12.23;;;;;;;10.35;100.00;101002.22;5031123;28;20539;-84
2021/10/28 20:41:32;;;;;;;30.17;12.35;;;;;;;9.89;100.00;100911.16;5018673;28;20042;-83
2021/10/28 20:43:59;;;;;;;25.90;12.15;;;;;;;9.95;100.00;100927.53;5036123;28;20081;-83
2021/10/28 20:46:26;;;;;;;27.10;11.90;;;;;;;9.70;100.00;100882.25;5006717;28;20050;-83
2021/10/28 20:48:54;;;;;;;30.83;11.98;;;;;;;9.90;100.00;100909.31;5016931;28;20034;-82
2021/10/28 20:53:55;;;;;;;25.30;11.88;;;;;;;10.16;100.00;100929.38;5511757;23;20054;-81
2021/10/28 20:56:25;;;;;;;26.55;11.65;;;;;;;9.90;100.00;100901.25;5018797;28;20086;-81
2021/10/28 20:58:51;;;;;;;25.77;11.05;;;;;;;10.85;100.00;101039.91;5019314;28;20029;-82
2021/10/28 21:01:20;;;;;;;24.63;10.43;;;;;;;9.90;100.00;100901.25;5038370;28;20029;-82
2021/10/28 21:03:45;;;;;;;27.83;10.63;;;;;;;9.93;100.00;100900.84;5017536;28;20028;-81
2021/10/28 21:06:12;;;;;;;31.63;11.45;;;;;;;9.73;100.00;100862.19;5034195;28;20045;-82
2021/10/28 21:08:38;;;;;;;23.23;10.82;;;;;;;10.93;100.00;101036.25;5189462;23;20053;-82
2021/10/28 21:11:03;;;;;;;25.58;10.23;;;;;;;10.02;100.00;100893.47;5024542;28;20149;-80
2021/10/28 21:13:29;;;;;;;23.17;10.40;;;;;;;10.36;100.00;100938.47;5023725;28;20040;-80